首页
METAR-TAF:

METAR-TAF

机场 :

萊切, 意大利

纬度: 40-14N, 经度: 018-09E, 海拔: 48米

当前天气观测

该预报发布于39分钟前的00:55 UTC
风速4节,风向西北
温度 18°C
湿度 94%
气压 1017 hPa
能見度: 6000
散云层高于1000英尺

METAR: LIBN 170055Z 32004KT 6000 SCT010 18/17 Q1017 RMK SCT VIS MIN 6000 WIND THR14 29004KT WIND THR32 31003KT WHT

时间: 03:34 (01:34 UTC)

预报

该预报发布于11小时和34分钟前的14:00 UTC
预报有效从16日的 15点(UTC)到 16日的 24点(UTC)
风速10节,风向西
能见度10公里或以上
少量云层高于2500英尺
成为
从 16日的 16点(UTC)到 16日的 18点(UTC)
风速3节,风向多变
能见度10公里或以上
1500米以下无云,无积雨云
成为
从 16日的 20点(UTC)到 16日的 21点(UTC)
能見度: 5000
轻雾

TAF: LIBN 161400Z 1615/1624 26010KT 9999 FEW025 BECMG 1616/1618 VRB03KT CAVOK BECMG 1620/1621 5000 BR

超过4000个机场的气象观测和天气预报(METAR&TAF报告)。

可查询的气象台以黄色和红色小点在地图上表示。

将鼠标移到小点上方,可查看气象台名称。

然后点击查看天气观测和预报。

如需切换地图:点击带黑十字的绿色按钮放大地图;点击带横线的绿色按钮缩小地图;或者点击绿色箭头查看邻近地区的地图。


METAR-TAF: